Flight Track Log - Related Links

Times and Time Zones

All times are in EDT time to prevent confusion due to time zone crossing. See the ASQ5740 flight status page for this flight to view local times or setup timezone preferences in your user account.

Time Position Orientation Groundspeed Altitude Reporting Facility
EDT Latitude Longitude Course Direction KTS MPH feet Rate Location/Type
Sat 18:37:35 32.8806 -79.9936 63° Northeast 224 258 3,800  Level Jacksonville Center
Sat 18:38:35 32.9314 -80.0167 339° North 184 212 6,100 2,200 Climbing Jacksonville Center
Sat 18:39:00 33.3136 -80.2402 337° Northwest  Level FlightAware Approximate
Sat 18:39:35 32.9864 -80.0497 333° Northwest 181 208 8,200  Level Jacksonville Center
Sat 18:40:00 33.3928 -80.3392 309° West  Level FlightAware Approximate
Sat 18:40:35 33.0519 -80.0897 333° Northwest 223 257 9,500  Level Jacksonville Center
Sat 18:41:00 33.4711 -80.4423 301° West  Level FlightAware Approximate
Sat 18:41:35 33.1258 -80.1294 336° Northwest 314 361 10,200  Level Jacksonville Center
Sat 18:42:00 33.5378 -80.5567 309° West  Level FlightAware Approximate
Sat 18:42:35 33.2167 -80.1839 333° Northwest 339 390 10,800  Level Jacksonville Center
Sat 18:43:35 33.3139 -80.2431 333° Northwest 366 421 11,700 1,200 Climbing Jacksonville Center
Sat 18:44:35 33.4133 -80.2997 335° Northwest 384 442 13,200 1,450 Climbing Jacksonville Center
Sat 18:45:35 33.5106 -80.3567 334° Northwest 389 448 14,600 1,350 Climbing Jacksonville Center
Sat 18:46:35 33.6075 -80.4136 334° Northwest 389 448 15,900 1,400 Climbing Jacksonville Center
Sat 18:47:35 33.7047 -80.4708 334° Northwest 389 448 17,400 1,350 Climbing Jacksonville Center
Sat 18:48:35 33.8017 -80.5258 335° Northwest 389 448 18,600 1,100 Climbing Jacksonville Center
Sat 18:49:35 33.9008 -80.5831 334° Northwest 389 448 19,600 1,050 Climbing Jacksonville Center
Sat 18:50:35 33.9978 -80.6406 334° Northwest 389 448 20,700 1,000 Climbing Jacksonville Center
Sat 18:51:35 34.0969 -80.7008 333° Northwest 389 448 21,600 950 Climbing Jacksonville Center
Sat 18:52:35 34.1981 -80.7586 335° Northwest 389 448 22,600 1,100 Climbing Jacksonville Center
Sat 18:53:35 34.2931 -80.8267 329° Northwest 389 448 23,800 1,150 Climbing Jacksonville Center
Sat 18:54:35 34.3900 -80.8897 332° Northwest 395 455 24,900 1,088 Climbing Jacksonville Center
Sat 18:56:15 34.5561 -81.0097 329° Northwest 394 453 26,700 1,043 Climbing Atlanta Center
Sat 18:57:16 34.6456 -81.0772 328° Northwest 394 453 27,700 1,000 Climbing Atlanta Center
Sat 18:58:15 34.7369 -81.1497 327° Northwest 388 447 28,700 850 Climbing Atlanta Center
Sat 18:59:16 34.8283 -81.2175 329° Northwest 388 447 29,400 600 Climbing Atlanta Center
Sat 19:00:15 34.9217 -81.2878 328° Northwest 388 447 29,900 300 Climbing Atlanta Center
Sat 19:01:16 35.0153 -81.3633 327° Northwest 395 455 30,000 50 Climbing Atlanta Center
Sat 19:02:15 35.1169 -81.4411 328° Northwest 410 472 30,000  Level Atlanta Center
Sat 19:03:16 35.2208 -81.5192 328° Northwest 430 495 30,000  Level Atlanta Center
Sat 19:04:15 35.3164 -81.5928 328° Northwest 436 502 30,000  Level Atlanta Center
Sat 19:05:15 35.4222 -81.6789 326° Northwest 453 521 30,000  Level Atlanta Center
Sat 19:06:15 35.5303 -81.7600 329° Northwest 453 521 30,000  Level Atlanta Center
Sat 19:07:15 35.6381 -81.8439 328° Northwest 453 521 30,000  Level Atlanta Center
Sat 19:08:15 35.7481 -81.9253 329° Northwest 453 521 30,000  Level Atlanta Center
Sat 19:09:15 35.8558 -82.0122 327° Northwest 458 527 30,000  Level Atlanta Center
Sat 19:10:15 35.9617 -82.0967 327° Northwest 458 527 30,000  Level Atlanta Center
Sat 19:11:16 36.0733 -82.1814 328° Northwest 463 533 30,000  Level Atlanta Center
Sat 19:12:15 36.1769 -82.2664 326° Northwest 454 522 30,000  Level Atlanta Center
Sat 19:13:15 36.2844 -82.3517 327° Northwest 448 516 30,000  Level Atlanta Center
Sat 19:14:16 36.3961 -82.4394 328° Northwest 455 524 30,000  Level Atlanta Center
Sat 19:16:09 36.6161 -82.6147 327° Northwest 469 540 30,000  Level Indianapolis Center
Sat 19:17:10 36.7267 -82.7042 327° Northwest 470 541 30,000  Level Indianapolis Center
Sat 19:18:11 36.8375 -82.7939 327° Northwest 471 542 30,000  Level Indianapolis Center
Sat 19:19:12 36.9519 -82.8881 327° Northwest 472 543 30,000  Level Indianapolis Center
Sat 19:20:13 37.0522 -82.9692 327° Northwest 472 543 30,000  Level Indianapolis Center
Sat 19:21:14 37.1625 -83.0597 327° Northwest 473 544 30,000  Level Indianapolis Center
Sat 19:22:15 37.2925 -83.1664 327° Northwest 474 545 30,000  Level Indianapolis Center
Sat 19:23:16 37.4033 -83.2581 327° Northwest 474 545 30,000  Level Indianapolis Center
Sat 19:24:17 37.5150 -83.3503 327° Northwest 475 547 30,000  Level Indianapolis Center
Sat 19:25:18 37.6267 -83.4433 327° Northwest 476 548 30,000  Level Indianapolis Center
Sat 19:26:19 37.7375 -83.5347 327° Northwest 476 548 30,000  Level Indianapolis Center
Sat 19:27:20 37.8481 -83.6281 326° Northwest 476 548 30,000  Level Indianapolis Center
Sat 19:28:21 37.9594 -83.7211 327° Northwest 476 548 30,000  Level Indianapolis Center
Sat 19:29:22 38.0711 -83.8139 327° Northwest 477 549 30,000  Level Indianapolis Center
Sat 19:30:23 38.1881 -83.8961 331° Northwest 478 550 30,000  Level Indianapolis Center
Sat 19:31:24 38.3044 -83.9833 330° Northwest 479 551 30,000  Level Indianapolis Center
Sat 19:32:25 38.4197 -84.0714 329° Northwest 481 554 30,000  Level Indianapolis Center
Sat 19:33:27 38.5564 -84.1728 330° Northwest 483 556 30,000  Level Indianapolis Center
Sat 19:34:28 38.6517 -84.2436 330° Northwest 484 557 30,000  Level Indianapolis Center
Sat 19:35:29 38.7919 -84.3508 329° Northwest 486 559 30,000  Level Indianapolis Center
Sat 19:36:30 38.9094 -84.4389 330° Northwest 486 559 30,000 -98 Level Indianapolis Center
Sat 19:37:31 39.0261 -84.5289 329° Northwest 488 562 29,800 -590 Descending Indianapolis Center
Sat 19:38:32 39.1422 -84.6169 330° Northwest 487 560 28,800 -885 Descending Indianapolis Center
Sat 19:39:33 39.2528 -84.7025 329° Northwest 471 542 28,000 -393 Descending Indianapolis Center
Sat 19:40:34 39.3614 -84.7872 329° Northwest 460 529 28,000  Level Indianapolis Center
Sat 19:41:35 39.4703 -84.8708 329° Northwest 458 527 28,000  Level Indianapolis Center
Sat 19:42:36 39.5914 -84.9642 329° Northwest 457 526 28,000  Level Indianapolis Center
Sat 19:43:38 39.7011 -85.0500 329° Northwest 457 526 28,000  Level Indianapolis Center
Sat 19:44:39 39.8119 -85.1369 329° Northwest 462 532 28,000  Level Indianapolis Center
Sat 19:45:40 39.9228 -85.2233 329° Northwest 463 533 28,000  Level Indianapolis Center
Sat 19:46:41 40.0339 -85.3119 329° Northwest 465 535 28,000 -443 Level Indianapolis Center
Sat 19:47:42 40.1444 -85.3983 329° Northwest 465 535 27,100 -885 Descending Indianapolis Center
Sat 19:48:43 40.2508 -85.4833 329° Northwest 459 528 26,200 -541 Descending Indianapolis Center
Sat 19:49:44 40.3539 -85.5658 329° Northwest 445 512 26,000 -516 Descending Indianapolis Center
Sat 19:50:16 40.4161 -85.6142 329° Northwest 444 511 25,400 -1,085 Descending Chicago Center
Sat 19:51:18 40.5222 -85.6883 332° Northwest 441 507 24,300 -683 Descending Chicago Center
Sat 19:52:19 40.5989 -85.7936 314° West 415 478 24,000 -148 Descending Chicago Center
Sat 19:53:20 40.6667 -85.9175 306° West 419 482 24,000  Level Chicago Center
Sat 19:54:22 40.7408 -86.0528 306° West 415 478 24,000  Level Chicago Center
Sat 19:55:23 40.8067 -86.1719 306° West 406 467 24,000  Level Chicago Center
Sat 19:56:24 40.8744 -86.2928 307° West 406 467 24,000  Level Chicago Center
Sat 19:57:25 40.9394 -86.4128 306° West 405 466 24,000 -683 Level Chicago Center
Sat 19:58:27 41.0039 -86.5308 306° West 397 457 22,600 -1,951 Descending Chicago Center
Sat 19:59:28 41.0650 -86.6419 306° West 375 432 20,000 -2,656 Descending Chicago Center
Sat 20:00:29 41.1306 -86.7581 307° West 342 394 17,200 -2,585 Descending Chicago Center
Sat 20:01:31 41.1878 -86.8667 305° West 333 383 14,700 -2,195 Descending Chicago Center
Sat 20:02:32 41.2425 -86.9650 307° West 331 381 12,700 -1,820 Descending Chicago Center
Sat 20:03:33 41.2950 -87.0600 306° West 320 368 11,000 -836 Descending Chicago Center
Sat 20:04:34 41.3503 -87.1647 305° West 321 369 11,000  Level Chicago Center
Sat 20:05:36 41.4117 -87.2472 315° West 317 365 11,000  Level Chicago Center
Sat 20:06:37 41.4753 -87.3231 318° Northwest 310 357 11,000  Level Chicago Center
Sat 20:07:38 41.5431 -87.3947 322° Northwest 309 356 11,000  Level Chicago Center
Sat 20:08:40 41.6200 -87.4625 327° Northwest 309 356 11,000 -49 Level Chicago Center
Sat 20:09:41 41.6883 -87.5325 323° Northwest 310 357 10,900 -492 Descending Chicago Center
Sat 20:10:42 41.7522 -87.6069 319° Northwest 309 356 10,000 -439 Descending Chicago Center
Sat 20:11:44 41.8214 -87.6850 320° Northwest 305 351 10,000 -683 Level Chicago Center
Sat 20:12:45 41.8628 -87.7639 305° West 259 298 8,600 -1,377 Descending Chicago Center
Sat 20:13:46 41.8728 -87.8608 278° West 263 303 7,200 -780 Descending Chicago Center
Sat 20:14:48 41.8828 -87.9647 277° West 262 302 7,000 -976 Descending Chicago Center
Sat 20:15:49 41.8844 -88.0583 271° West 258 297 5,200 -1,426 Descending Chicago Center
Sat 20:16:50 41.9061 -88.1331 291° West 243 280 4,100 -829 Descending Chicago Center
Sat 20:17:52 41.9581 -88.1072 20° North 204 235 3,500 -807 Descending Chicago Center
Sat 20:18:49 41.9667 -88.0500 79° East 182 209 2,500 -973 Descending Chicago TRACON
Sat 20:19:43 41.9667 -88.0000 90° East 145 167 1,700 -842 Descending Chicago TRACON
Sat 20:20:43 41.9667 -87.9333 90° East 137 158 900 -800 Descending Chicago TRACON

Login

Don't have an account? Register now (free) for customized features, flight alerts, and more!